Tiempo atmosférico en la estación meteorológica de Tineo, Soto de la Barca, Asturias (285 m.)



Fecha
DESCASC
Temp. máxima en grados centígrados (hora)
DESCASC
Temp. mínima en grados centígrados (hora)
DESCASC
Temp. media en grados centígrados
DESCASC
Racha de viento máxima en m/sg (hora)
DESCASC
Velocidad máxima media en intervalos de 10 minutos(hora)
DESCASC
Precipitaciones diarias en mm
DESCASC
Precipitaciones de 00:00 a 06:00 en mm
DESCASC
Precipitaciones de 06:00 a 12:00 en mm
DESCASC
Precipitaciones de 12:00 a 18:00 en mm
DESCASC
Precipitaciones de 18:00 a 24:00 en mm
DESCASC

Gráficas

Temp. máximas Temp. mínimas Temp. medias Precipitaciones Rachas de viento máximas Velocidades máximas media en intervalos de 10 minutos

Datos horarios

Fecha y hora oficial Temperatura (ºC) Velocidad del viento (km/h) Dirección del viento Racha (km/h) Dirección de racha Precipitación (mm) Presión (hPa) Tendencia (hPa) Humedad (%)
2020-07-10 23:00:00 16 5 Sudeste 17 Sudeste 0 -- -- 88
2020-07-10 22:00:00 16.1 7 Sudeste 21 Este 0 -- -- 86
2020-07-10 21:00:00 16.3 9 Sudeste 20 Este 0 -- -- 84
2020-07-10 20:00:00 17.1 6 Sudeste 15 Este 0 -- -- 84
2020-07-10 19:00:00 17.7 9 Este 23 Nordeste 0 -- -- 82
2020-07-10 18:00:00 18.5 11 Este 25 Este 0 -- -- 79
2020-07-10 17:00:00 18.5 11 Este 24 Este 0 -- -- 80
2020-07-10 16:00:00 19.2 11 Este 20 Sudeste 0 -- -- 78
2020-07-10 15:00:00 19.4 9 Este 19 Este 0 -- -- 77
2020-07-10 14:00:00 19.3 11 Este 18 Este 0 -- -- 76
2020-07-10 13:00:00 19.1 10 Sudeste 16 Sudeste 0 -- -- 75
2020-07-10 12:00:00 19 7 Este 13 Nordeste 0 -- -- 75
2020-07-10 11:00:00 18.4 4 Sudeste 9 Este 0 -- -- 76
2020-07-10 10:00:00 17 3 Este 8 Este 0 -- -- 82
2020-07-10 09:00:00 15.9 4 Este 6 Este 0 -- -- 85
2020-07-10 08:00:00 15.4 2 Este 4 Este 0 -- -- 87
2020-07-10 07:00:00 15.1 3 Este 4 Este 0 -- -- 87
2020-07-10 06:00:00 15 3 Sudeste 6 Sudeste 0 -- -- 86
2020-07-10 05:00:00 14.6 2 Sudeste 4 Oeste 0 -- -- 88
2020-07-10 04:00:00 14.3 0 Calma 6 Noroeste 0 -- -- 88
2020-07-10 03:00:00 13.7 3 Noroeste 5 Oeste 0 -- -- 90
2020-07-10 02:00:00 14.5 0 Calma 6 Oeste 0 -- -- 86
2020-07-10 01:00:00 15.4 3 Noroeste 8 Oeste 0 -- -- 83
2020-07-10 00:00:00 16.9 0 Calma 10 Sudeste 0 -- -- 77
2020-07-09 23:00:00 18.7 10 Sudeste 17 Sudeste 0 -- -- 71
2020-07-09 22:00:00 20.3 4 Sudeste 12 Este 0 -- -- 67
2020-07-09 21:00:00 22.6 5 Este 23 Nordeste 0 -- -- 61
2020-07-09 20:00:00 24.3 9 Norte 26 Nordeste 0 -- -- 58
2020-07-09 19:00:00 25.5 8 Este 22 Este 0 -- -- 55
2020-07-09 18:00:00 26 6 Nordeste 19 Este 0 -- -- 55
2020-07-09 17:00:00 25.6 9 Este 20 Este 0 -- -- 59
2020-07-09 16:00:00 25.3 8 Este 19 Este 0 -- -- 60
2020-07-09 15:00:00 25.6 9 Este 20 Este 0 -- -- 61
2020-07-09 14:00:00 25 7 Este 18 Este 0 -- -- 62
2020-07-09 13:00:00 23.5 10 Este 17 Sudeste 0 -- -- 64
2020-07-09 12:00:00 21.4 5 Este 9 Este 0 -- -- 74
2020-07-09 11:00:00 20.2 3 Nordeste 5 Este 0 -- -- 80
2020-07-09 10:00:00 19 2 Este 4 Este 0 -- -- 85
2020-07-09 09:00:00 18.2 0 Calma 3 Este 0 -- -- 89
2020-07-09 08:00:00 17.7 0 Calma 2 Sudoeste 0 -- -- 92
2020-07-09 07:00:00 17.5 2 Este 4 Este 0 -- -- 92
2020-07-09 06:00:00 17.8 0 Calma 6 Sudeste 0 -- -- 90
2020-07-09 05:00:00 17.8 2 Sudeste 8 Sudeste 0 -- -- 89
2020-07-09 04:00:00 17.8 4 Sudeste 9 Sudeste 0 -- -- 89
2020-07-09 03:00:00 17.8 2 Sur 5 Sur 0 -- -- 88
2020-07-09 02:00:00 17.9 2 Sur 12 Sudeste 0 -- -- 87
2020-07-09 01:00:00 18.2 8 Sudeste 16 Sudeste 0 -- -- 84
2020-07-09 00:00:00 18.8 3 Sudeste 11 Nordeste 0 -- -- 80
2020-07-08 23:00:00 19.3 7 Este 15 Sudeste 0 -- -- 79
2020-07-08 22:00:00 19.6 3 Sudeste 9 Sudeste 0 -- -- 78
2020-07-08 21:00:00 19.8 5 Sudeste 21 Sudeste 0 -- -- 80
2020-07-08 20:00:00 19.8 10 Sudeste 31 Este 0 -- -- 84
2020-07-08 19:00:00 21.1 8 Este 26 Sudeste 0 -- -- 78
2020-07-08 18:00:00 22.7 9 Este 21 Este 0 -- -- 71
2020-07-08 17:00:00 23.4 10 Sudeste 17 Este 0 -- -- 67
2020-07-08 16:00:00 22.5 8 Este 21 Este 0 -- -- 69
2020-07-08 15:00:00 22.3 8 Sudeste 14 Sudeste 0 -- -- 69
2020-07-08 14:00:00 20.7 7 Sudeste 14 Sudeste 0 -- -- 72
2020-07-08 13:00:00 19.6 5 Sudeste 16 Este 0 -- -- 76
2020-07-08 12:00:00 18.7 3 Este 12 Sudeste 0 -- -- 81
2020-07-08 11:00:00 17.9 5 Sudeste 10 Este 0 -- -- 84
2020-07-08 10:00:00 17.5 4 Este 12 Sudeste 0 -- -- 86
2020-07-08 09:00:00 17.1 5 Sur 10 Sur 0 -- -- 88
2020-07-08 08:00:00 17 4 Sudeste 9 Sudeste 0 -- -- 88
2020-07-08 07:00:00 17.1 4 Este 11 Este 0 -- -- 87
2020-07-08 06:00:00 17.2 5 Este 11 Nordeste 0 -- -- 86
2020-07-08 05:00:00 17.5 4 Sudeste 12 Nordeste 0 -- -- 87
2020-07-08 04:00:00 17.7 3 Sudeste 9 Sudeste 0 -- -- 87
2020-07-08 03:00:00 17.8 3 Sudeste 8 Este 0 -- -- 86
2020-07-08 02:00:00 17.9 5 Nordeste 12 Este 0 -- -- 85
2020-07-08 01:00:00 18.1 5 Este 15 Este 0 -- -- 84
2020-07-08 00:00:00 18.3 6 Este 20 Este 0 -- -- 83
2020-07-07 23:00:00 18.3 9 Este 20 Este 0 -- -- 82
2020-07-07 22:00:00 19.1 8 Este 21 Este 0 -- -- 78
2020-07-07 21:00:00 21.1 8 Este 22 Este 0 -- -- 70
2020-07-07 20:00:00 22.6 13 Este 23 Este 0 -- -- 65
2020-07-07 19:00:00 23.8 9 Este 23 Este 0 -- -- 62
2020-07-07 18:00:00 24.8 12 Nordeste 26 Nordeste 0 -- -- 59
2020-07-07 17:00:00 25 8 Nordeste 20 Este 0 -- -- 57
2020-07-07 16:00:00 23.9 12 Sudeste 22 Sudeste 0 -- -- 59
2020-07-07 15:00:00 21.4 10 Sudeste 19 Sudeste 0 -- -- 68
2020-07-07 14:00:00 19.3 8 Sudeste 13 Sudeste 0 -- -- 74
2020-07-07 13:00:00 18.5 4 Este 11 Este 0 -- -- 75
2020-07-07 12:00:00 17.3 6 Este 11 Este 0 -- -- 78
2020-07-07 11:00:00 16.7 4 Este 12 Este 0 -- -- 81
2020-07-07 10:00:00 15.8 6 Sudeste 15 Este 0 -- -- 85
2020-07-07 09:00:00 15.3 7 Este 17 Nordeste 0 -- -- 86
2020-07-07 08:00:00 15 4 Este 12 Este 0 -- -- 90
2020-07-07 07:00:00 14.9 5 Sudeste 13 Sudeste 0 -- -- 91
2020-07-07 06:00:00 14.9 8 Sudeste 13 Sudeste 0 -- -- 91
2020-07-07 05:00:00 15.1 6 Sudeste 17 Nordeste 0 -- -- 91
2020-07-07 04:00:00 15.2 7 Sudeste 14 Sudeste 0 -- -- 92
2020-07-07 03:00:00 15.3 6 Sudeste 18 Nordeste 0 -- -- 92
2020-07-07 02:00:00 15.6 6 Este 23 Este 0 -- -- 90
2020-07-07 01:00:00 15.9 10 Nordeste 17 Nordeste 0 -- -- 88
2020-07-07 00:00:00 15.9 4 Este 19 Este 0 -- -- 89
2020-07-06 23:00:00 16.1 8 Este 19 Este 0 -- -- 87
2020-07-06 22:00:00 16.2 9 Este 20 Este 0 -- -- 88
2020-07-06 21:00:00 16.7 7 Este 20 Este 0 -- -- 87
2020-07-06 20:00:00 17.2 7 Este 20 Este 0 -- -- 85
2020-07-06 19:00:00 17.5 5 Este 20 Este 0 -- -- 84
2020-07-06 18:00:00 17.6 9 Nordeste 24 Nordeste 0 -- -- 83
2020-07-06 17:00:00 17.5 10 Este 27 Nordeste 0 -- -- 84
2020-07-06 16:00:00 18 11 Este 23 Este 0 -- -- 82
2020-07-06 15:00:00 18.8 11 Nordeste 21 Este 0 -- -- 80
2020-07-06 14:00:00 18.2 10 Este 24 Nordeste 0 -- -- 82
2020-07-06 13:00:00 18.7 14 Este 27 Nordeste 0 -- -- 80
2020-07-06 12:00:00 18.1 10 Nordeste 27 Este 0 -- -- 82
2020-07-06 11:00:00 18.2 10 Este 23 Este 0 -- -- 84
2020-07-06 10:00:00 18 6 Sudeste 14 Este 0 -- -- 87
2020-07-06 09:00:00 17.5 4 Sudeste 14 Este 0 -- -- 89
2020-07-06 08:00:00 17.6 6 Sudeste 18 Este 0 -- -- 88
2020-07-06 07:00:00 17.6 6 Sudeste 14 Sudeste 0 -- -- 89
2020-07-06 06:00:00 17.8 5 Sudeste 18 Este 0 -- -- 89
2020-07-06 05:00:00 17.8 5 Este 17 Este 0 -- -- 88
2020-07-06 04:00:00 17.9 4 Sudeste 10 Este 0 -- -- 88
2020-07-06 03:00:00 17.9 5 Este 11 Este 0 -- -- 88
2020-07-06 02:00:00 18.1 7 Sudeste 12 Este 0 -- -- 87
2020-07-06 01:00:00 18.3 5 Este 13 Este 0 -- -- 87
2020-07-06 00:00:00 18.7 9 Este 14 Este 0 -- -- 86
2020-07-05 23:00:00 19.4 7 Sudeste 14 Este 0 -- -- 83
2020-07-05 22:00:00 21.1 7 Nordeste 17 Norte 0 -- -- 78
2020-07-05 21:00:00 23.2 8 Norte 19 Este 0 -- -- 71
2020-07-05 20:00:00 24.5 7 Este 19 Este 0 -- -- 65
2020-07-05 19:00:00 25.3 10 Este 26 Este 0 -- -- 63
2020-07-05 18:00:00 26.9 11 Nordeste 22 Nordeste 0 -- -- 58
2020-07-05 17:00:00 27.8 9 Nordeste 23 Este 0 -- -- 55
2020-07-05 16:00:00 28.4 9 Este 24 Este 0 -- -- 54
2020-07-05 15:00:00 28.3 8 Nordeste 19 Este 0 -- -- 51
2020-07-05 14:00:00 27.6 11 Este 19 Este 0 -- -- 54
2020-07-05 13:00:00 27 7 Este 15 Este 0 -- -- 56
2020-07-05 12:00:00 25.5 8 Este 13 Sudeste 0 -- -- 60
2020-07-05 11:00:00 22.4 4 Este 8 Este 0 -- -- 68
2020-07-05 10:00:00 19.1 2 Noroeste 6 Norte 0 -- -- 76
2020-07-05 09:00:00 16.5 0 Calma 5 Noroeste 0 -- -- 83
2020-07-05 08:00:00 14.6 0 Calma 5 Noroeste 0 -- -- 92
2020-07-05 07:00:00 13.2 0 Calma 2 Sur 0 -- -- 94
2020-07-05 06:00:00 13.4 0 Calma 4 Noroeste 0 -- -- 93
2020-07-05 05:00:00 13.8 0 Calma 4 Oeste 0 -- -- 91
2020-07-05 04:00:00 14.3 0 Calma 3 Noroeste 0 -- -- 90
2020-07-05 03:00:00 15 0 Calma 4 Noroeste 0 -- -- 88
2020-07-05 02:00:00 15.8 0 Calma 4 Oeste 0 -- -- 85
2020-07-05 01:00:00 16.6 0 Calma 4 Oeste 0 -- -- 83
2020-07-05 00:00:00 17.9 0 Calma 7 Sudeste 0 -- -- 77
2020-07-04 23:00:00 19.3 4 Sudeste 11 Sur 0 -- -- 70
2020-07-04 22:00:00 21 6 Sudeste 17 Sudeste 0 -- -- 64
2020-07-04 21:00:00 22.3 10 Sudeste 19 Este 0 -- -- 59
2020-07-04 20:00:00 25.7 6 Este 28 Este 0 -- -- 54
2020-07-04 19:00:00 26.5 10 Norte 23 Norte 0 -- -- 55
2020-07-04 18:00:00 28.2 10 Nordeste 27 Norte 0 -- -- 53
2020-07-04 17:00:00 28.8 8 Este 21 Este 0 -- -- 46
2020-07-04 16:00:00 28.8 10 Este 21 Este 0 -- -- 43
2020-07-04 15:00:00 28.3 10 Este 20 Sudeste 0 -- -- 42
2020-07-04 14:00:00 27.8 8 Este 13 Nordeste 0 -- -- 38
2020-07-04 13:00:00 25.5 5 Este 12 Este 0 -- -- 37
2020-07-04 12:00:00 21.7 3 Este 9 Este 0 -- -- 60
2020-07-04 11:00:00 17.9 4 Este 10 Este 0 -- -- 74
2020-07-04 10:00:00 14.6 6 Este 11 Norte 0 -- -- 82
2020-07-04 09:00:00 12.2 2 Noroeste 8 Noroeste 0 -- -- 91
2020-07-04 08:00:00 11.7 4 Oeste 8 Oeste 0 -- -- 95
2020-07-04 07:00:00 11 3 Este 9 Este 0 -- -- 97
2020-07-04 06:00:00 10.4 0 Calma 5 Sudeste 0 -- -- 95
2020-07-04 05:00:00 10.9 3 Noroeste 9 Oeste 0 -- -- 95
2020-07-04 04:00:00 11.5 2 Sur 3 Oeste 0 -- -- 93
2020-07-04 03:00:00 12.2 0 Calma 4 Noroeste 0 -- -- 91
2020-07-04 02:00:00 13.2 0 Calma 3 Sur 0 -- -- 88
2020-07-04 01:00:00 15.2 0 Calma 3 Sudoeste 0 -- -- 82
2020-07-04 00:00:00 16.2 0 Calma 13 Sudeste 0 -- -- 78
2020-07-03 23:00:00 16.6 5 Sudeste 10 Sudeste 0 -- -- 75
2020-07-03 22:00:00 17.1 2 Este 12 Norte 0 -- -- 73
2020-07-03 21:00:00 17.8 4 Nordeste 22 Sudeste 0 -- -- 70
2020-07-03 20:00:00 18.8 9 Este 23 Este 0 -- -- 67
2020-07-03 19:00:00 19.8 8 Nordeste 24 Este 0 -- -- 65
2020-07-03 18:00:00 21.8 12 Este 26 Este 0 -- -- 60
2020-07-03 17:00:00 23.3 11 Este 23 Sudeste 0 -- -- 54
2020-07-03 16:00:00 23.1 11 Este 20 Este 0 -- -- 51
2020-07-03 15:00:00 22.3 6 Este 15 Este 0 -- -- 52
2020-07-03 14:00:00 21.3 6 Este 19 Este 0 -- -- 51
2020-07-03 13:00:00 20.5 9 Este 17 Este 0 -- -- 55
2020-07-03 12:00:00 20.1 10 Este 20 Este 0 -- -- 55
2020-07-03 11:00:00 18.4 8 Sudeste 16 Sudeste 0 -- -- 64
2020-07-03 10:00:00 15.5 3 Nordeste 8 Este 0 -- -- 77
2020-07-03 09:00:00 13.1 3 Este 6 Este 0 -- -- 85
2020-07-03 08:00:00 11 2 Este 4 Este 0 -- -- 94
2020-07-03 07:00:00 10.1 0 Calma 3 Sudeste 0 -- -- 93
2020-07-03 06:00:00 11.1 2 Sudeste 4 Sudeste 0 -- -- 92
2020-07-03 05:00:00 12.1 2 Sudeste 4 Este 0 -- -- 89
2020-07-03 04:00:00 12.8 0 Calma 3 Este 0 -- -- 89
2020-07-03 03:00:00 13.4 2 Oeste 3 Oeste 0 -- -- 85
2020-07-03 02:00:00 13.7 0 Calma 3 Este 0 -- -- 86
2020-07-03 01:00:00 13.8 3 Este 12 Sudeste 0 -- -- 84
2020-07-03 00:00:00 14.5 5 Este 9 Este 0 -- -- 79
2020-07-02 23:00:00 14.6 2 Sudeste 8 Sudeste 0 -- -- 78
2020-07-02 22:00:00 15 4 Sudeste 9 Este 0 -- -- 73
2020-07-02 21:00:00 15.4 3 Nordeste 13 Sur 0 -- -- 66
2020-07-02 20:00:00 15.6 6 Sudeste 16 Sudeste 0 -- -- 70
2020-07-02 19:00:00 15.6 10 Sudeste 15 Este 0 -- -- 74
2020-07-02 18:00:00 16 7 Sudeste 31 Noroeste 0 -- -- 75
2020-07-02 17:00:00 17.1 4 Sudeste 18 Nordeste 0 -- -- 71
2020-07-02 16:00:00 17.9 8 Sudeste 17 Nordeste 0 -- -- 67
2020-07-02 15:00:00 18.9 3 Sudeste 20 Noroeste 0 -- -- 67
2020-07-02 14:00:00 18.1 12 Norte 20 Norte 0 -- -- 67
2020-07-02 13:00:00 19.4 10 Este 18 Este 0 -- -- 67
2020-07-02 12:00:00 18 6 Este 11 Este 0 -- -- 70
2020-07-02 11:00:00 16.1 3 Noroeste 6 Noroeste 0 -- -- 78
2020-07-02 10:00:00 15.1 0 Calma 7 Este 0 -- -- 88
2020-07-02 09:00:00 14.2 2 Nordeste 4 Este 0 -- -- 94
2020-07-02 08:00:00 13.4 0 Calma 5 Sur 0 -- -- 97
2020-07-02 07:00:00 13.1 3 Sur 6 Sur 0 -- -- 96
2020-07-02 06:00:00 13.3 2 Sudeste 8 Sudeste 0.2 -- -- 95
2020-07-02 05:00:00 13.6 3 Sudeste 9 Sudeste 0.8 -- -- 96
2020-07-02 04:00:00 14.2 3 Sudeste 8 Este 0.2 -- -- 96
2020-07-02 03:00:00 14.3 4 Sudeste 8 Sudeste 0 -- -- 96
2020-07-02 02:00:00 14.8 2 Sur 6 Sudeste 0.2 -- -- 94
2020-07-02 01:00:00 15 0 Calma 4 Sur 0 -- -- 93
2020-07-02 00:00:00 15.1 2 Sur 7 Sudeste 0 -- -- 93
2020-07-01 23:00:00 15.3 3 Sur 10 Sudeste 0 -- -- 92
2020-07-01 22:00:00 15.5 5 Sudeste 13 Este 0 -- -- 93
2020-07-01 21:00:00 16.7 6 Este 18 Este 0 -- -- 85
2020-07-01 20:00:00 17.4 6 Este 22 Sudeste 0 -- -- 83
2020-07-01 19:00:00 18.1 8 Este 21 Este 0 -- -- 81
2020-07-01 18:00:00 19.2 10 Este 25 Este 0 -- -- 78
2020-07-01 17:00:00 20.5 17 Este 28 Este 0 -- -- 73
2020-07-01 16:00:00 23.1 13 Este 24 Este 0 -- -- 68
2020-07-01 15:00:00 22.5 14 Este 23 Este 0 -- -- 69
2020-07-01 14:00:00 22.5 13 Sudeste 24 Sudeste 0 -- -- 71
2020-07-01 13:00:00 24.4 9 Noroeste 23 Oeste 0 -- -- 61
2020-07-01 12:00:00 24.7 10 Noroeste 22 Noroeste 0 -- -- 61
2020-07-01 11:00:00 23.3 5 Norte 11 Noroeste 0 -- -- 65
2020-07-01 10:00:00 20.3 3 Este 9 Nordeste 0 -- -- 78
2020-07-01 09:00:00 17.4 4 Noroeste 12 Noroeste 0 -- -- 88
2020-07-01 08:00:00 15.5 2 Noroeste 5 Noroeste 0 -- -- 93
2020-07-01 07:00:00 15.6 0 Calma 6 Oeste 0 -- -- 92
2020-07-01 06:00:00 16.2 3 Noroeste 4 Oeste 0 -- -- 92
2020-07-01 05:00:00 16.9 0 Calma 5 Sudoeste 0 -- -- 89
2020-07-01 04:00:00 18.5 2 Sur 4 Sudoeste 0 -- -- 84
2020-07-01 03:00:00 19.4 0 Calma 3 Sur 0 -- -- 82
2020-07-01 02:00:00 19.7 0 Calma 3 Sudoeste 0 -- -- 80
2020-07-01 01:00:00 20.1 2 Sur 6 Sudeste 0 -- -- 78
2020-07-01 00:00:00 20.4 5 Sudeste 12 Este 0 -- -- 77
2020-06-30 23:00:00 20.8 5 Este 14 Sudeste 0 -- -- 76
2020-06-30 22:00:00 21.2 9 Sudeste 15 Este 0 -- -- 73
2020-06-30 21:00:00 22.7 5 Este 17 Norte 0 -- -- 69
2020-06-30 20:00:00 23.8 7 Nordeste 24 Nordeste 0 -- -- 64
2020-06-30 19:00:00 25.9 9 Este 21 Este 0 -- -- 62
2020-06-30 18:00:00 26.8 9 Este 26 Este 0 -- -- 61
2020-06-30 17:00:00 27.2 12 Nordeste 28 Este 0 -- -- 61
2020-06-30 16:00:00 27.4 9 Este 20 Este 0 -- -- 58
2020-06-30 15:00:00 27.3 9 Este 17 Este 0 -- -- 56
2020-06-30 14:00:00 26.4 10 Este 18 Este 0 -- -- 56
2020-06-30 13:00:00 25.7 12 Este 19 Este 0 -- -- 58
2020-06-30 12:00:00 23.8 6 Este 13 Este 0 -- -- 62
2020-06-30 11:00:00 20.6 3 Nordeste 7 Este 0 -- -- 68
2020-06-30 10:00:00 17.3 3 Norte 8 Este 0 -- -- 78
2020-06-30 09:00:00 15.1 3 Nordeste 7 Sudeste 0 -- -- 84
2020-06-30 08:00:00 12.9 0 Calma 4 Oeste 0 -- -- 92
2020-06-30 07:00:00 11.9 3 Oeste 8 Oeste 0 -- -- 94
2020-06-30 06:00:00 11.9 0 Calma 4 Oeste 0 -- -- 94
2020-06-30 05:00:00 12.2 0 Calma 4 Oeste 0 -- -- 93
2020-06-30 04:00:00 12.6 0 Calma 6 Noroeste 0 -- -- 92
2020-06-30 03:00:00 13.1 0 Calma 4 Oeste 0 -- -- 91
2020-06-30 02:00:00 13.8 0 Calma 4 Oeste 0 -- -- 88
2020-06-30 01:00:00 14.8 0 Calma 4 Este 0 -- -- 88
2020-06-30 00:00:00 16.2 0 Calma 4 Sudeste 0 -- -- 87
2020-06-29 23:00:00 17.6 3 Sur 8 Sudeste 0 -- -- 84
2020-06-29 22:00:00 19.1 4 Sudeste 13 Este 0 -- -- 77
2020-06-29 21:00:00 21 6 Este 16 Este 0 -- -- 71
2020-06-29 20:00:00 22.5 9 Este 20 Este 0 -- -- 66
2020-06-29 19:00:00 23.4 13 Este 21 Este 0 -- -- 63
2020-06-29 18:00:00 24.1 11 Este 18 Este 0 -- -- 61
2020-06-29 17:00:00 23.6 9 Este 19 Sudeste 0 -- -- 65
2020-06-29 16:00:00 22.7 12 Sudeste 21 Sudeste 0 -- -- 66
2020-06-29 15:00:00 22.2 10 Este 20 Sudeste 0 -- -- 67
2020-06-29 14:00:00 21.9 11 Este 23 Sudeste 0 -- -- 73
2020-06-29 13:00:00 20.6 11 Sudeste 17 Este 0 -- -- 75
2020-06-29 12:00:00 19.3 9 Sudeste 14 Sudeste 0 -- -- 80
2020-06-29 11:00:00 18.3 5 Este 10 Este 0 -- -- 84
2020-06-29 10:00:00 17 3 Este 5 Este 0 -- -- 89
2020-06-29 09:00:00 16.1 2 Este 3 Nordeste 0 -- -- 93
2020-06-29 08:00:00 15.5 0 Calma 4 Este 0 -- -- 96
2020-06-29 07:00:00 15.3 2 Este 5 Sudeste 0.2 -- -- 95
2020-06-29 06:00:00 15.3 3 Este 6 Sudeste 0 -- -- 96
2020-06-29 05:00:00 15.6 3 Sudeste 10 Sudeste 0 -- -- 94
2020-06-29 04:00:00 15.9 5 Sudeste 9 Sudeste 0 -- -- 92
2020-06-29 03:00:00 15.9 2 Sudeste 9 Sudeste 0 -- -- 93
2020-06-29 02:00:00 16.4 5 Sudeste 11 Sudeste 0 -- -- 90
2020-06-29 01:00:00 16.8 6 Sudeste 10 Este 0 -- -- 89
2020-06-29 00:00:00 17.3 4 Sur 10 Sudeste 0 -- -- 91
2020-06-28 23:00:00 17.6 3 Sudeste 6 Sudeste 0 -- -- 92
2020-06-28 22:00:00 17.9 4 Sudeste 8 Sudeste 0.2 -- -- 91
2020-06-28 21:00:00 18.6 4 Sudeste 10 Sudeste 0 -- -- 90
2020-06-28 20:00:00 19.5 7 Sudeste 18 Sudeste 0 -- -- 86
2020-06-28 19:00:00 21.2 8 Sudeste 17 Sudeste 0 -- -- 80
2020-06-28 18:00:00 22.6 10 Noroeste 26 Noroeste 0 -- -- 71
2020-06-28 17:00:00 24.9 3 Noroeste 23 Noroeste 0 -- -- 62
2020-06-28 16:00:00 24.8 12 Noroeste 23 Noroeste 0 -- -- 60
2020-06-28 15:00:00 24 14 Noroeste 28 Noroeste 0.2 -- -- 61
2020-06-28 14:00:00 24.2 9 Noroeste 18 Noroeste 0 -- -- 62
2020-06-28 13:00:00 23.4 4 Noroeste 17 Noroeste 0 -- -- 64
2020-06-28 12:00:00 23.4 9 Noroeste 17 Noroeste 0 -- -- 61
2020-06-28 11:00:00 22.1 5 Noroeste 17 Noroeste 0 -- -- 64
2020-06-28 10:00:00 19.2 10 Oeste 19 Oeste 0 -- -- 69
2020-06-28 09:00:00 17.5 4 Nordeste 10 Noroeste 0 -- -- 78
2020-06-28 08:00:00 15.4 3 Este 8 Este 0 -- -- 91
2020-06-28 07:00:00 14.6 4 Sudeste 12 Sudoeste 0 -- -- 94
2020-06-28 06:00:00 15.2 0 Calma 9 Oeste 0 -- -- 92
2020-06-28 05:00:00 16.1 8 Oeste 12 Oeste 0 -- -- 91
2020-06-28 04:00:00 16.5 3 Oeste 7 Este 0 -- -- 91
2020-06-28 03:00:00 16.9 4 Este 8 Este 0 -- -- 91
2020-06-28 02:00:00 17 3 Este 6 Este 0 -- -- 91
2020-06-28 01:00:00 17.2 4 Este 7 Sudeste 0 -- -- 89
2020-06-28 00:00:00 17.5 4 Sudeste 10 Este 0 -- -- 88
2020-06-27 23:00:00 17.7 8 Sudeste 14 Sudeste 0 -- -- 87
2020-06-27 22:00:00 18.1 9 Este 26 Este 0 -- -- 85
2020-06-27 21:00:00 19.8 17 Sudeste 29 Este 0 -- -- 80
2020-06-27 20:00:00 26 9 Noroeste 30 Noroeste 0 -- -- 51
2020-06-27 19:00:00 26 17 Noroeste 36 Noroeste 0 -- -- 55
2020-06-27 18:00:00 26.4 14 Noroeste 30 Noroeste 0 -- -- 55
2020-06-27 17:00:00 26.3 16 Noroeste 36 Noroeste 0 -- -- 56
2020-06-27 16:00:00 26 7 Noroeste 21 Noroeste 0 -- -- 55
2020-06-27 15:00:00 25.7 8 Noroeste 29 Oeste 0 -- -- 55
2020-06-27 14:00:00 25.9 9 Noroeste 27 Noroeste 0 -- -- 55
2020-06-27 13:00:00 23.6 14 Noroeste 28 Noroeste 0 -- -- 61
2020-06-27 12:00:00 23.3 4 Sudeste 26 Oeste 0 -- -- 61
2020-06-27 11:00:00 22.4 8 Noroeste 18 Noroeste 0 -- -- 65
2020-06-27 10:00:00 21.5 3 Oeste 19 Oeste 0 -- -- 67
2020-06-27 09:00:00 20.2 4 Sur 13 Noroeste 0 -- -- 73
2020-06-27 08:00:00 19.6 2 Sudeste 10 Sudoeste 0 -- -- 70
2020-06-27 07:00:00 19.2 4 Sudoeste 9 Oeste 0 -- -- 71
2020-06-27 06:00:00 18.8 3 Sudoeste 8 Oeste 0 -- -- 74
2020-06-27 05:00:00 18.2 2 Sudoeste 8 Sudoeste 0 -- -- 77
2020-06-27 04:00:00 18.6 2 Sudoeste 8 Oeste 0 -- -- 75
2020-06-27 03:00:00 18.9 4 Sur 12 Sudeste 0 -- -- 72
2020-06-27 02:00:00 18.4 3 Sudeste 7 Sudoeste 0 -- -- 77
2020-06-27 01:00:00 18.8 3 Sur 8 Sudoeste 0 -- -- 78
2020-06-27 00:00:00 19.2 3 Sur 6 Sudoeste 0 -- -- 78
2020-06-26 23:00:00 19.9 4 Oeste 9 Oeste 0 -- -- 75
2020-06-26 22:00:00 21.8 2 Sudoeste 31 Noroeste 0 -- -- 68
2020-06-26 21:00:00 22 3 Sudoeste 7 Sur 0 -- -- 69
2020-06-26 20:00:00 23.5 3 Sur 20 Noroeste 0 -- -- 61
2020-06-26 19:00:00 24.5 5 Noroeste 20 Noroeste 0 -- -- 54
2020-06-26 18:00:00 23.6 7 Sudeste 17 Este 0 -- -- 67
2020-06-26 17:00:00 23.2 11 Sudeste 18 Este 0 -- -- 69
2020-06-26 16:00:00 23.1 6 Sudeste 18 Este 0 -- -- 64
2020-06-26 15:00:00 23.3 11 Este 21 Este 0 -- -- 66
2020-06-26 14:00:00 23.3 13 Este 25 Este 0 -- -- 68
2020-06-26 13:00:00 22.7 11 Este 17 Este 0 -- -- 67
2020-06-26 12:00:00 21.3 6 Nordeste 12 Este 0 -- -- 69
2020-06-26 11:00:00 18.3 5 Este 9 Este 0 -- -- 84
2020-06-26 10:00:00 16.4 0 Calma 4 Este 0 -- -- 91
2020-06-26 09:00:00 15.4 0 Calma 5 Sudeste 0 -- -- 96
2020-06-26 08:00:00 15.3 0 Calma 4 Sudeste 0 -- -- 95
2020-06-26 07:00:00 15.2 2 Noroeste 5 Oeste 0 -- -- 96
2020-06-26 06:00:00 15.1 0 Calma 6 Sudeste 0 -- -- 96
2020-06-26 05:00:00 15.3 4 Sudeste 6 Sudeste 0 -- -- 94
2020-06-26 04:00:00 15.6 4 Sudeste 7 Sudeste 0 -- -- 91
2020-06-26 03:00:00 15.6 5 Sudeste 13 Sudeste 0 -- -- 93
2020-06-26 02:00:00 16.2 4 Sudeste 9 Sudeste 0 -- -- 90
2020-06-26 01:00:00 16.5 5 Este 13 Este 0 -- -- 89
2020-06-26 00:00:00 17.1 6 Sudeste 13 Sudeste 0 -- -- 87
2020-06-25 23:00:00 17.6 0 Calma 10 Noroeste 0 -- -- 86
2020-06-25 22:00:00 17.7 3 Noroeste 12 Oeste 0 -- -- 84
2020-06-25 21:00:00 18.3 4 Noroeste 9 Noroeste 0 -- -- 82
2020-06-25 20:00:00 18.1 6 Sudeste 18 Sudeste 0 -- -- 82
2020-06-25 19:00:00 18.4 8 Sudeste 18 Nordeste 0 -- -- 81
2020-06-25 18:00:00 18.6 5 Sudeste 23 Sudeste 0 -- -- 85
2020-06-25 17:00:00 18.1 10 Sudeste 23 Sudeste 0.2 -- -- 86
2020-06-25 16:00:00 21.2 11 Este 25 Este 0 -- -- 74
2020-06-25 15:00:00 22.8 13 Este 26 Este 0 -- -- 71
2020-06-25 14:00:00 23.4 14 Este 27 Este 0 -- -- 70
2020-06-25 13:00:00 22.8 6 Este 14 Este 0 -- -- 73
2020-06-25 12:00:00 20.8 5 Este 9 Este 0 -- -- 79
2020-06-25 11:00:00 17.9 3 Noroeste 9 Este 0.4 -- -- 89
2020-06-25 10:00:00 18.6 4 Norte 17 Oeste 0 -- -- 83
2020-06-25 09:00:00 17 7 Noroeste 12 Noroeste 0 -- -- 88
2020-06-25 08:00:00 15.8 4 Noroeste 10 Noroeste 0 -- -- 92
2020-06-25 07:00:00 15.7 0 Calma 3 Este 0 -- -- 95
2020-06-25 06:00:00 15.6 0 Calma 4 Nordeste 0 -- -- 95
2020-06-25 05:00:00 15.4 0 Calma 4 Este 0 -- -- 95
2020-06-25 04:00:00 15.9 0 Calma 6 Sudeste 0 -- -- 96
2020-06-25 03:00:00 15.9 0 Calma 5 Noroeste 0 -- -- 95
2020-06-25 02:00:00 16.5 0 Calma 10 Noroeste 0 -- -- 92
2020-06-25 01:00:00 17.9 3 Oeste 13 Noroeste 0 -- -- 89
2020-06-25 00:00:00 18.7 6 Noroeste 19 Oeste 0 -- -- 86
2020-06-24 23:00:00 19.2 10 Oeste 17 Noroeste 0 -- -- 83
2020-06-24 22:00:00 19.5 7 Oeste 32 Noroeste 0.2 -- -- 86
2020-06-24 21:00:00 18.9 6 Sudeste 20 Oeste 0 -- -- 90
2020-06-24 20:00:00 19.1 10 Noroeste 22 Noroeste 0 -- -- 90
2020-06-24 19:00:00 20.2 6 Noroeste 14 Oeste 0 -- -- 93
2020-06-24 18:00:00 21.1 5 Este 24 Sudeste 1.4 -- -- 90
2020-06-24 17:00:00 23.8 9 Este 24 Sudeste 0 -- -- 73
2020-06-24 16:00:00 26.8 16 Sudeste 27 Sudeste 0 -- -- 65
2020-06-24 15:00:00 29.4 12 Este 23 Este 0 -- -- 59
2020-06-24 14:00:00 29 11 Sudeste 17 Sudeste 0 -- -- 60
2020-06-24 13:00:00 27.7 7 Este 13 Este 0 -- -- 63
2020-06-24 12:00:00 25.7 7 Este 11 Este 0 -- -- 64
2020-06-24 11:00:00 22.9 4 Este 8 Este 0 -- -- 68
2020-06-24 10:00:00 20.2 2 Norte 6 Norte 0 -- -- 76
2020-06-24 09:00:00 17.6 3 Norte 6 Oeste 0 -- -- 84
2020-06-24 08:00:00 15.8 2 Este 5 Sudeste 0 -- -- 94
2020-06-24 07:00:00 14.9 3 Oeste 5 Oeste 0 -- -- 95
2020-06-24 06:00:00 15.4 0 Calma 3 Sudoeste 0 -- -- 93
2020-06-24 05:00:00 15.8 0 Calma 4 Este 0 -- -- 93
2020-06-24 04:00:00 16.5 3 Oeste 4 Noroeste 0 -- -- 92
2020-06-24 03:00:00 17.2 0 Calma 4 Noroeste 0 -- -- 89
2020-06-24 02:00:00 18 0 Calma 2 Noroeste 0 -- -- 86
2020-06-24 01:00:00 19.4 0 Calma 4 Noroeste 0 -- -- 82
2020-06-24 00:00:00 21 0 Calma 4 Oeste 0 -- -- 80
2020-06-23 23:00:00 22.9 0 Calma 6 Sudeste 0 -- -- 73
2020-06-23 22:00:00 25.3 0 Calma 11 Sudeste 0 -- -- 67
2020-06-23 21:00:00 28.6 5 Sur 13 Este 0 -- -- 55
2020-06-23 20:00:00 31.6 6 Este 15 Este 0 -- -- 43
2020-06-23 19:00:00 32.8 7 Nordeste 17 Este 0 -- -- 42
2020-06-23 18:00:00 33.1 11 Nordeste 19 Este 0 -- -- 41
2020-06-23 17:00:00 33.6 9 Nordeste 24 Este 0 -- -- 41
2020-06-23 16:00:00 33.5 8 Este 21 Sudeste 0 -- -- 44
2020-06-23 15:00:00 33.4 11 Sudeste 17 Sudeste 0 -- -- 42
2020-06-23 14:00:00 31.5 5 Sudeste 11 Este 0 -- -- 47
2020-06-23 13:00:00 28.8 8 Este 11 Nordeste 0 -- -- 53
2020-06-23 12:00:00 25.2 3 Este 8 Este 0 -- -- 68
2020-06-23 11:00:00 21.2 2 Noroeste 8 Sudeste 0 -- -- 78
2020-06-23 10:00:00 18.3 6 Este 10 Este 0 -- -- 87
2020-06-23 09:00:00 15.7 5 Noroeste 12 Noroeste 0 -- -- 96
2020-06-23 08:00:00 15.5 3 Noroeste 7 Oeste 0 -- -- 96
2020-06-23 07:00:00 15.4 4 Oeste 6 Noroeste 0 -- -- 96
2020-06-23 06:00:00 15.2 0 Calma 3 Noroeste 0 -- -- 96
2020-06-23 05:00:00 15.1 0 Calma 2 Noroeste 0 -- -- 96
2020-06-23 04:00:00 15.4 0 Calma 3 Oeste 0 -- -- 94
2020-06-23 03:00:00 16.2 0 Calma 2 Oeste 0 -- -- 93
2020-06-23 02:00:00 17.1 0 Calma 4 Este 0 -- -- 92
2020-06-23 01:00:00 17.7 0 Calma 2 Este 0 -- -- 90
2020-06-23 00:00:00 19 0 Calma 12 Sudeste 0 -- -- 86
2020-06-22 23:00:00 21.1 3 Sur 15 Sudeste 0 -- -- 80
2020-06-22 22:00:00 22.7 9 Sudeste 16 Sudeste 0 -- -- 74
2020-06-22 21:00:00 24.8 5 Sudeste 20 Este 0 -- -- 67
2020-06-22 20:00:00 26.1 11 Este 21 Este 0 -- -- 61
2020-06-22 19:00:00 27.2 10 Este 25 Este 0 -- -- 58
2020-06-22 18:00:00 28.2 8 Este 22 Este 0 -- -- 57
2020-06-22 17:00:00 28.6 11 Nordeste 20 Este 0 -- -- 56
2020-06-22 16:00:00 28.6 8 Nordeste 18 Sudeste 0 -- -- 52
2020-06-22 15:00:00 28.1 8 Este 18 Nordeste 0 -- -- 55
2020-06-22 14:00:00 26.6 7 Este 13 Este 0 -- -- 55
2020-06-22 13:00:00 24.9 6 Sudeste 14 Este 0 -- -- 58
2020-06-22 12:00:00 22.5 5 Este 12 Este 0 -- -- 68
2020-06-22 11:00:00 19.8 6 Este 13 Este 0 -- -- 78
2020-06-22 10:00:00 17 3 Sudeste 8 Sudeste 0 -- -- 86
2020-06-22 09:00:00 16.2 2 Este 6 Este 0 -- -- 86
2020-06-22 08:00:00 15.9 3 Este 8 Este 0 -- -- 87
2020-06-22 07:00:00 15.9 6 Este 9 Este 0 -- -- 86
2020-06-22 06:00:00 16.4 3 Este 8 Sudeste 0 -- -- 87
2020-06-22 05:00:00 16.8 0 Calma 4 Este 0 -- -- 91
2020-06-22 04:00:00 16.8 2 Este 6 Sudeste 0 -- -- 90
2020-06-22 03:00:00 16.9 3 Este 5 Sudeste 0 -- -- 90
2020-06-22 02:00:00 17.1 2 Sudeste 8 Sudeste 0 -- -- 88
2020-06-22 01:00:00 17.4 3 Sudeste 10 Este 0 -- -- 88
2020-06-22 00:00:00 17.7 4 Sudeste 8 Sudeste 0 -- -- 86
2020-06-21 23:00:00 17.9 5 Este 13 Nordeste 0 -- -- 85
2020-06-21 22:00:00 18.4 4 Este 19 Este 0 -- -- 83
2020-06-21 21:00:00 19.7 8 Este 21 Norte 0 -- -- 80
2020-06-21 20:00:00 21.6 6 Este 21 Este 0 -- -- 75
2020-06-21 19:00:00 23.5 9 Nordeste 27 Nordeste 0 -- -- 70
2020-06-21 18:00:00 23.7 10 Nordeste 21 Este 0 -- -- 66
2020-06-21 17:00:00 25.3 7 Este 15 Noroeste 0 -- -- 60
2020-06-21 16:00:00 23.8 10 Noroeste 18 Noroeste 0 -- -- 61
2020-06-21 15:00:00 23.8 9 Noroeste 19 Noroeste 0 -- -- 60
2020-06-21 14:00:00 24.1 8 Noroeste 16 Noroeste 0 -- -- 59
2020-06-21 13:00:00 22.6 12 Noroeste 22 Noroeste 0 -- -- 60
2020-06-21 12:00:00 20.3 7 Noroeste 14 Noroeste 0 -- -- 66
2020-06-21 11:00:00 19.6 6 Noroeste 23 Noroeste 0 -- -- 68
2020-06-21 10:00:00 15.8 0 Calma 6 Este 0 -- -- 85
2020-06-21 09:00:00 14 2 Sudeste 6 Oeste 0 -- -- 93
2020-06-21 08:00:00 12.5 3 Noroeste 5 Oeste 0 -- -- 97
2020-06-21 07:00:00 12.5 4 Noroeste 7 Noroeste 0 -- -- 97
2020-06-21 06:00:00 12.8 2 Oeste 6 Noroeste 0 -- -- 97
2020-06-21 05:00:00 12.5 2 Noroeste 4 Oeste 0 -- -- 97
2020-06-21 04:00:00 12.6 2 Oeste 6 Noroeste 0 -- -- 96
2020-06-21 03:00:00 13 0 Calma 5 Oeste 0 -- -- 95
2020-06-21 02:00:00 13.5 4 Oeste 6 Oeste 0 -- -- 94
2020-06-21 01:00:00 14.3 2 Sudoeste 4 Sudoeste 0 -- -- 91
2020-06-21 00:00:00 15 0 Calma 6 Sudeste 0 -- -- 88
2020-06-20 23:00:00 16.6 4 Sudeste 9 Sudeste 0 -- -- 83
2020-06-20 22:00:00 18.2 7 Sudeste 12 Sudeste 0 -- -- 78
2020-06-20 21:00:00 19.9 6 Este 20 Este 0 -- -- 73
2020-06-20 20:00:00 21.4 8 Este 21 Este 0 -- -- 70
2020-06-20 19:00:00 22.4 10 Este 24 Este 0 -- -- 67
2020-06-20 18:00:00 23.7 12 Este 21 Este 0 -- -- 64
2020-06-20 17:00:00 23.6 13 Este 24 Este 0 -- -- 65
2020-06-20 16:00:00 24.9 11 Nordeste 26 Nordeste 0 -- -- 61
2020-06-20 15:00:00 24.8 9 Este 21 Este 0 -- -- 60
2020-06-20 14:00:00 24 8 Sudeste 19 Este 0 -- -- 61
2020-06-20 13:00:00 23 9 Este 14 Este 0 -- -- 62
2020-06-20 12:00:00 21.1 4 Nordeste 15 Nordeste 0 -- -- 68
2020-06-20 11:00:00 17.3 3 Este 10 Nordeste 0 -- -- 82
2020-06-20 10:00:00 13.7 2 Nordeste 7 Oeste 0 -- -- 93
2020-06-20 09:00:00 12.7 0 Calma 3 Noroeste 0 -- -- 96
2020-06-20 08:00:00 11.8 0 Calma 3 Este 0 -- -- 97
2020-06-20 07:00:00 11.2 2 Norte 6 Oeste 0 -- -- 97
2020-06-20 06:00:00 11.3 0 Calma 3 Noroeste 0 -- -- 95
2020-06-20 05:00:00 11.9 0 Calma 5 Oeste 0 -- -- 94
2020-06-20 04:00:00 12.7 2 Oeste 5 Oeste 0 -- -- 93
2020-06-20 03:00:00 12.6 0 Calma 5 Noroeste 0 -- -- 94
2020-06-20 02:00:00 12.6 0 Calma 4 Noroeste 0 -- -- 93
2020-06-20 01:00:00 13.2 0 Calma 4 Este 0 -- -- 91
2020-06-20 00:00:00 14.6 2 Sur 13 Este 0 -- -- 85
2020-06-19 23:00:00 15.8 4 Sudeste 14 Sudeste 0 -- -- 82
2020-06-19 22:00:00 16.9 6 Sudeste 16 Este 0 -- -- 77
2020-06-19 21:00:00 18.4 5 Este 19 Este 0 -- -- 71
2020-06-19 20:00:00 19.7 9 Este 21 Este 0 -- -- 68
2020-06-19 19:00:00 21.6 12 Este 22 Este 0 -- -- 64
2020-06-19 18:00:00 22.5 12 Nordeste 21 Este 0 -- -- 61
2020-06-19 17:00:00 22.8 8 Este 25 Nordeste 0 -- -- 59
2020-06-19 16:00:00 22.7 12 Este 24 Sudeste 0 -- -- 58
2020-06-19 15:00:00 22.9 8 Este 17 Este 0 -- -- 55
2020-06-19 14:00:00 21.8 7 Este 13 Oeste 0 -- -- 52
2020-06-19 13:00:00 20.9 6 Este 13 Nordeste 0 -- -- 55
2020-06-19 12:00:00 19.4 4 Noroeste 13 Noroeste 0 -- -- 58
2020-06-19 11:00:00 18.5 5 Este 12 Nordeste 0 -- -- 64
2020-06-19 10:00:00 16 4 Nordeste 8 Nordeste 0 -- -- 78
2020-06-19 09:00:00 13.4 3 Norte 6 Noroeste 0 -- -- 87
2020-06-19 08:00:00 11.5 3 Noroeste 7 Noroeste 0 -- -- 93
2020-06-19 07:00:00 11.3 0 Calma 7 Oeste 0 -- -- 92
2020-06-19 06:00:00 11.7 0 Calma 6 Oeste 0 -- -- 93
2020-06-19 05:00:00 11.5 2 Sur 6 Noroeste 0 -- -- 93
2020-06-19 04:00:00 12.2 2 Sudoeste 4 Sudeste 0 -- -- 91
2020-06-19 03:00:00 12.9 0 Calma 8 Oeste 0 -- -- 88
2020-06-19 02:00:00 13.6 3 Oeste 6 Oeste 0 -- -- 85
2020-06-19 01:00:00 14.4 0 Calma 3 Sudoeste 0 -- -- 85
2020-06-19 00:00:00 14.8 0 Calma 4 Sur 0 -- -- 83
2020-06-18 23:00:00 15.2 3 Este 10 Sudeste 0 -- -- 77
2020-06-18 22:00:00 15.4 5 Sudeste 11 Sudeste 0 -- -- 78
2020-06-18 21:00:00 15.7 6 Sudeste 10 Sudeste 0 -- -- 76
2020-06-18 20:00:00 16 7 Sudeste 14 Este 0 -- -- 76
2020-06-18 19:00:00 16.7 6 Este 15 Este 0 -- -- 73
2020-06-18 18:00:00 17.5 9 Este 21 Este 0 -- -- 69
2020-06-18 17:00:00 18.8 12 Este 22 Este 0 -- -- 64
2020-06-18 16:00:00 18.8 12 Este 24 Este 0 -- -- 67
2020-06-18 15:00:00 20.7 6 Norte 21 Este 0 -- -- 55
2020-06-18 14:00:00 20.9 5 Nordeste 18 Norte 0 -- -- 53
2020-06-18 13:00:00 20.1 8 Este 14 Este 0 -- -- 53
2020-06-18 12:00:00 18.6 4 Norte 13 Noroeste 0 -- -- 59
2020-06-18 11:00:00 17.1 5 Oeste 14 Noroeste 0 -- -- 66
2020-06-18 10:00:00 14.9 3 Noroeste 14 Noroeste 0 -- -- 79
2020-06-18 09:00:00 12.7 9 Noroeste 13 Noroeste 0 -- -- 90
2020-06-18 08:00:00 11.2 2 Noroeste 7 Oeste 0 -- -- 96
2020-06-18 07:00:00 11.2 0 Calma 6 Oeste 0 -- -- 95
2020-06-18 06:00:00 11.8 3 Oeste 4 Oeste 0 -- -- 94
2020-06-18 05:00:00 12.3 0 Calma 2 Sudoeste 0 -- -- 95
2020-06-18 04:00:00 12.6 0 Calma 3 Oeste 0 -- -- 94
2020-06-18 03:00:00 12.8 0 Calma 2 Sudoeste 0 -- -- 95
2020-06-18 02:00:00 12.7 2 Oeste 3 Oeste 0 -- -- 94
2020-06-18 01:00:00 12.7 0 Calma 3 Este 0 -- -- 94
2020-06-18 00:00:00 12.8 0 Calma 3 Este 0 -- -- 94
2020-06-17 23:00:00 13 0 Calma 5 Sur 0 -- -- 91
2020-06-17 22:00:00 13.5 4 Sudeste 9 Sudeste 0.2 -- -- 89
2020-06-17 21:00:00 14.6 5 Sudeste 10 Sudeste 0 -- -- 84
2020-06-17 20:00:00 14.9 5 Este 10 Sudeste 0 -- -- 84
2020-06-17 19:00:00 15.5 3 Sur 10 Sudeste 0 -- -- 81
2020-06-17 18:00:00 16.8 3 Nordeste 13 Noroeste 0 -- -- 76
2020-06-17 17:00:00 16.5 5 Noroeste 15 Noroeste 0 -- -- 76
2020-06-17 16:00:00 16.6 4 Oeste 10 Oeste 0 -- -- 72
2020-06-17 15:00:00 16.3 5 Noroeste 10 Noroeste 0 -- -- 77
2020-06-17 14:00:00 16.1 3 Oeste 9 Noroeste 0 -- -- 72
2020-06-17 13:00:00 15.9 6 Oeste 11 Oeste 0 -- -- 75
2020-06-17 12:00:00 15.1 3 Norte 5 Norte 0 -- -- 81
2020-06-17 11:00:00 13.6 2 Sudeste 4 Este 0 -- -- 96
2020-06-17 10:00:00 12.6 2 Este 4 Este 0 -- -- 97
2020-06-17 09:00:00 12.3 2 Este 6 Oeste 0 -- -- 99
2020-06-17 08:00:00 11.8 3 Oeste 6 Noroeste 0 -- -- 99
2020-06-17 07:00:00 11.8 0 Calma 5 Oeste 0 -- -- 99
2020-06-17 06:00:00 11.9 2 Este 4 Este 0 -- -- 99
2020-06-17 05:00:00 11.9 3 Noroeste 5 Oeste 0 -- -- 99
2020-06-17 04:00:00 11.8 0 Calma 5 Sudoeste 0 -- -- 99
2020-06-17 03:00:00 12.1 2 Sudoeste 4 Sudeste 0.2 -- -- 98
2020-06-17 02:00:00 12.4 2 Oeste 4 Noroeste 0.6 -- -- 98
2020-06-17 01:00:00 12.5 0 Calma 12 Noroeste 0.8 -- -- 98
2020-06-17 00:00:00 12.7 5 Oeste 12 Noroeste 3.2 -- -- 96
2020-06-16 23:00:00 13.2 2 Sudoeste 4 Oeste 0 -- -- 96
2020-06-16 22:00:00 13.6 0 Calma 8 Noroeste 1.8 -- -- 95
2020-06-16 21:00:00 14.8 2 Sudeste 13 Noroeste 0.2 -- -- 89
2020-06-16 20:00:00 15.9 9 Noroeste 20 Oeste 0 -- -- 76
2020-06-16 19:00:00 17.4 3 Noroeste 14 Noroeste 0 -- -- 67
2020-06-16 18:00:00 17.5 10 Noroeste 26 Noroeste 0 -- -- 63
2020-06-16 17:00:00 17.8 5 Noroeste 27 Noroeste 0 -- -- 66
2020-06-16 16:00:00 17.8 5 Noroeste 12 Norte 0 -- -- 69
2020-06-16 15:00:00 17 3 Oeste 18 Norte 0 -- -- 73
2020-06-16 14:00:00 17 7 Noroeste 25 Noroeste 0 -- -- 73
2020-06-16 13:00:00 16 6 Noroeste 28 Noroeste 0 -- -- 77
2020-06-16 12:00:00 16.1 12 Noroeste 19 Noroeste 0.2 -- -- 83
2020-06-16 11:00:00 15 5 Noroeste 9 Oeste 0 -- -- 92
2020-06-16 10:00:00 14.3 2 Este 4 Este 0 -- -- 95
2020-06-16 09:00:00 13.3 0 Calma 2 Oeste 0 -- -- 96
2020-06-16 08:00:00 12.8 2 Nordeste 5 Oeste 0.4 -- -- 96
2020-06-16 07:00:00 12.8 2 Sudeste 11 Oeste 0.4 -- -- 95
2020-06-16 06:00:00 13.4 2 Norte 10 Oeste 0 -- -- 89
2020-06-16 05:00:00 13.3 3 Noroeste 11 Oeste 0 -- -- 90
2020-06-16 04:00:00 13.2 5 Oeste 10 Oeste 0 -- -- 92
2020-06-16 03:00:00 13.4 5 Oeste 13 Oeste 0 -- -- 91
2020-06-16 02:00:00 13.3 0 Calma 13 Oeste 0 -- -- 94
2020-06-16 01:00:00 13.3 4 Noroeste 8 Oeste 0 -- -- 94
2020-06-16 00:00:00 13.9 3 Sudoeste 8 Noroeste 0 -- -- 91
2020-06-15 23:00:00 14.5 3 Sudoeste 7 Oeste 0 -- -- 90
2020-06-15 22:00:00 16 4 Oeste 10 Noroeste 0.2 -- -- 82
2020-06-15 21:00:00 17.9 2 Sudoeste 4 Sudoeste 0 -- -- 74
2020-06-15 20:00:00 18.6 2 Sur 13 Noroeste 0 -- -- 65
2020-06-15 19:00:00 18.9 7 Noroeste 15 Oeste 0 -- -- 62
2020-06-15 18:00:00 18.9 5 Noroeste 17 Noroeste 0 -- -- 61
2020-06-15 17:00:00 19.5 8 Noroeste 18 Noroeste 0 -- -- 61
2020-06-15 16:00:00 19.9 7 Noroeste 21 Oeste 0 -- -- 55
2020-06-15 15:00:00 19.3 5 Noroeste 31 Noroeste 0 -- -- 59
2020-06-15 14:00:00 19.7 8 Noroeste 24 Noroeste 0 -- -- 56
2020-06-15 13:00:00 19.1 7 Oeste 24 Noroeste 0 -- -- 59
2020-06-15 12:00:00 18.8 5 Noroeste 41 Noroeste 0 -- -- 60
2020-06-15 11:00:00 18.8 10 Noroeste 25 Noroeste 0 -- -- 62
2020-06-15 10:00:00 17.1 4 Norte 22 Noroeste 0 -- -- 69
2020-06-15 09:00:00 13.3 0 Calma 5 Noroeste 0 -- -- 89
2020-06-15 08:00:00 11.7 0 Calma 8 Noroeste 0 -- -- 94
2020-06-15 07:00:00 9.9 0 Calma 8 Noroeste 0 -- -- 97
2020-06-15 06:00:00 9.9 2 Este 9 Oeste 0 -- -- 95
2020-06-15 05:00:00 9.8 2 Nordeste 8 Noroeste 0 -- -- 94
2020-06-15 04:00:00 10.3 4 Oeste 9 Oeste 0 -- -- 94
2020-06-15 03:00:00 10.6 0 Calma 4 Oeste 0 -- -- 94
2020-06-15 02:00:00 11.4 0 Calma 3 Noroeste 0 -- -- 92
2020-06-15 01:00:00 12.6 0 Calma 4 Este 0 -- -- 87
2020-06-15 00:00:00 13.5 0 Calma 4 Sudoeste 0 -- -- 87
2020-06-14 23:00:00 14.3 0 Calma 5 Sudoeste 0 -- -- 83
2020-06-14 22:00:00 15 3 Sudoeste 10 Sur 0 -- -- 83
2020-06-14 21:00:00 16 3 Oeste 18 Noroeste 0 -- -- 81
2020-06-14 20:00:00 17.8 4 Sur 10 Oeste 0 -- -- 64
2020-06-14 19:00:00 18.4 3 Sudoeste 13 Noroeste 0 -- -- 62
2020-06-14 18:00:00 18.7 4 Norte 18 Noroeste 0 -- -- 61
2020-06-14 17:00:00 18.9 5 Oeste 18 Oeste 0 -- -- 59
2020-06-14 16:00:00 19.8 9 Noroeste 26 Noroeste 0 -- -- 56
2020-06-14 15:00:00 19.2 8 Noroeste 28 Noroeste 0 -- -- 58
2020-06-14 14:00:00 19.9 9 Noroeste 29 Noroeste 0 -- -- 58
2020-06-14 13:00:00 18 5 Oeste 24 Noroeste 0 -- -- 61
2020-06-14 12:00:00 18 11 Noroeste 32 Noroeste 0 -- -- 60
2020-06-14 11:00:00 16.9 13 Noroeste 31 Noroeste 0 -- -- 63
2020-06-14 10:00:00 15.1 3 Norte 10 Noroeste 0 -- -- 70
2020-06-14 09:00:00 12.5 4 Noroeste 11 Oeste 0 -- -- 78
2020-06-14 08:00:00 11.4 4 Noroeste 13 Oeste 0 -- -- 79
2020-06-14 07:00:00 10.3 3 Oeste 14 Oeste 0 -- -- 86
2020-06-14 06:00:00 11 3 Sudoeste 14 Oeste 0 -- -- 82
2020-06-14 05:00:00 12.2 6 Oeste 13 Sudoeste 0 -- -- 76
2020-06-14 04:00:00 12.5 6 Sudoeste 12 Sudoeste 0 -- -- 73
2020-06-14 03:00:00 12.3 4 Sudoeste 9 Sudoeste 0 -- -- 77
2020-06-14 02:00:00 12.7 2 Sudoeste 9 Sur 0 -- -- 78
2020-06-14 01:00:00 12.9 3 Sudoeste 8 Sudoeste 0 -- -- 76
2020-06-14 00:00:00 13.2 3 Sudoeste 11 Sudoeste 0 -- -- 80
2020-06-13 23:00:00 13.2 3 Sudoeste 6 Sur 0 -- -- 80
2020-06-13 22:00:00 14.9 3 Sur 17 Sudeste 0 -- -- 74
2020-06-13 21:00:00 16.6 5 Sur 21 Sudeste 0 -- -- 60
2020-06-13 20:00:00 17.9 4 Sudeste 27 Sudeste 0 -- -- 59
2020-06-13 19:00:00 17.9 9 Noroeste 21 Noroeste 0 -- -- 64
2020-06-13 18:00:00 17.8 4 Oeste 22 Noroeste 0 -- -- 62
2020-06-13 17:00:00 16.7 4 Noroeste 17 Noroeste 0 -- -- 72
2020-06-13 16:00:00 15 11 Noroeste 22 Noroeste 0 -- -- 80
2020-06-13 15:00:00 14.3 5 Noroeste 42 Noroeste 0 -- -- 82
2020-06-13 14:00:00 15.3 0 Calma 19 Noroeste 0 -- -- 83
2020-06-13 13:00:00 14.6 6 Noroeste 17 Noroeste 0 -- -- 83
2020-06-13 12:00:00 14 3 Sudeste 15 Noroeste 0 -- -- 86
2020-06-13 11:00:00 12.8 0 Calma 5 Sudoeste 0 -- -- 93
2020-06-13 10:00:00 12.8 2 Oeste 6 Oeste 0 -- -- 91
2020-06-13 09:00:00 12 3 Sudoeste 6 Sudoeste 0 -- -- 92
2020-06-13 08:00:00 11.7 4 Sudoeste 11 Noroeste 0 -- -- 91
2020-06-13 07:00:00 11.2 3 Oeste 6 Oeste 0 -- -- 95
2020-06-13 06:00:00 11.1 5 Oeste 6 Noroeste 0 -- -- 95
2020-06-13 05:00:00 11.3 3 Sudoeste 6 Sudoeste 0.2 -- -- 95
2020-06-13 04:00:00 11.8 3 Sudoeste 8 Oeste 0 -- -- 90
2020-06-13 03:00:00 11.6 3 Sur 6 Sudoeste 0 -- -- 93
2020-06-13 02:00:00 11.7 2 Sur 7 Oeste 0 -- -- 92
2020-06-13 01:00:00 11.7 2 Sudeste 10 Sudoeste 0 -- -- 94
2020-06-13 00:00:00 11.8 2 Sur 7 Sudoeste 0 -- -- 94
2020-06-12 23:00:00 11.9 3 Sur 8 Oeste 0 -- -- 94
2020-06-12 22:00:00 12.1 3 Oeste 8 Oeste 0.2 -- -- 93
2020-06-12 21:00:00 12.8 3 Sur 9 Sur 0.2 -- -- 91
2020-06-12 20:00:00 14 4 Sur 15 Noroeste 0 -- -- 82
2020-06-12 19:00:00 14.7 0 Calma 10 Sudoeste 0 -- -- 91
2020-06-12 18:00:00 15.1 5 Sudoeste 15 Nordeste 0 -- -- 84
2020-06-12 17:00:00 13.2 2 Noroeste 27 Noroeste 2.6 -- -- 91
2020-06-12 16:00:00 13.9 2 Norte 18 Noroeste 1.2 -- -- 90
2020-06-12 15:00:00 14.5 3 Noroeste 19 Oeste 0 -- -- 81
2020-06-12 14:00:00 11.5 2 Oeste 8 Sudoeste 0.2 -- -- 98
2020-06-12 13:00:00 10.8 4 Sur 26 Noroeste 3.8 -- -- 93
2020-06-12 12:00:00 11.8 2 Oeste 6 Noroeste 0 -- -- 94
2020-06-12 11:00:00 11.3 0 Calma 7 Sudoeste 0 -- -- 95
2020-06-12 10:00:00 10.8 0 Calma 8 Noroeste 0.2 -- -- 92
2020-06-12 09:00:00 10.2 2 Sur 7 Sudoeste 0.2 -- -- 93
2020-06-12 08:00:00 9.6 3 Sudoeste 7 Sur 0 -- -- 95
2020-06-12 07:00:00 9.2 3 Sur 9 Nordeste 0 -- -- 96
2020-06-12 06:00:00 9.2 3 Sudeste 9 Sur 0 -- -- 95
2020-06-12 05:00:00 9.9 2 Sur 9 Sur 0.4 -- -- 96
2020-06-12 04:00:00 10.3 8 Sur 24 Noroeste 2 -- -- 92
2020-06-12 03:00:00 10.8 0 Calma 9 Sudoeste 1.4 -- -- 96
2020-06-12 02:00:00 10.9 0 Calma 15 Sur 0.2 -- -- 93
2020-06-12 01:00:00 10.7 3 Oeste 13 Sur 0.6 -- -- 92
2020-06-12 00:00:00 10.7 4 Sur 22 Sur 0.6 -- -- 88
2020-06-11 23:00:00 10.7 4 Sur 19 Sur 1 -- -- 89
2020-06-11 22:00:00 11.6 4 Sudoeste 16 Sur 0 -- -- 76
2020-06-11 21:00:00 11.2 3 Sur 10 Norte 0 -- -- 87
2020-06-11 20:00:00 11.7 0 Calma 10 Sur 0 -- -- 85
2020-06-11 19:00:00 10.9 5 Sur 15 Sur 0 -- -- 83
2020-06-11 18:00:00 10.7 4 Sudeste 33 Noroeste 1.4 -- -- 88
2020-06-11 17:00:00 12.3 2 Nordeste 40 Noroeste 3.4 -- -- 88
2020-06-11 16:00:00 15.2 7 Noroeste 27 Noroeste 0 -- -- 67
2020-06-11 15:00:00 15.2 7 Noroeste 18 Noroeste 0.2 -- -- 73
2020-06-11 14:00:00 13.1 15 Noroeste 28 Noroeste 0.2 -- -- 78
2020-06-11 13:00:00 13.1 8 Noroeste 29 Noroeste 0 -- -- 83
2020-06-11 12:00:00 13.2 8 Noroeste 32 Noroeste 0 -- -- 80
2020-06-11 11:00:00 12.8 15 Noroeste 36 Noroeste 2.8 -- -- 84
2020-06-11 10:00:00 15.3 6 Noroeste 19 Noroeste 0 -- -- 83
2020-06-11 09:00:00 15.2 3 Este 10 Noroeste 0 -- -- 80
2020-06-11 08:00:00 14.7 2 Sudeste 11 Oeste 0 -- -- 78
2020-06-11 07:00:00 14.6 3 Sudeste 18 Nordeste 0 -- -- 77
2020-06-11 06:00:00 14.5 2 Sur 6 Sudoeste 0 -- -- 77
2020-06-11 05:00:00 14.5 3 Sur 10 Sudoeste 0 -- -- 74
2020-06-11 04:00:00 14.1 3 Sudoeste 13 Sur 0 -- -- 80
2020-06-11 03:00:00 13.4 5 Sudoeste 12 Oeste 0 -- -- 86
2020-06-11 02:00:00 13.2 3 Sudoeste 8 Sudoeste 0 -- -- 87
2020-06-11 01:00:00 13.4 4 Noroeste 8 Oeste 0 -- -- 86
2020-06-11 00:00:00 13.6 2 Sudoeste 4 Sudoeste 0 -- -- 86